Ana Sayfa
METAR-TAF:

METAR-TAF

Havaalanları :

Recife, Pernambuco, Brezilya

Enlem: 08-08S, Boylam: 034-55W, yükseklik: 19 m

Güncel hava durumu gözlemi

Rapor saat 10:00 UTC de 34 dakika önce yapıldı.
Rüzgar doğudan 5 kt
Sıcaklık 28°C
Nem 70%
Basınç 1012 hPa
Görüş mesafesi 10 km veya daha fazla
2300 ft yükseklikte parçalı bulutlu

METAR: SBRF 111000Z 10005KT 9999 SCT023 28/22 Q1012

Saat: 07:34 (10:34 UTC)

Tahmin

Rapor saat 04:00 UTC de 6 saat ve 34 dakika önce yapıldı.
Ayın 11'si saat 06 UTC'den ayın 12'si saat 06 UTC'ye kadar geçerli Tahmin
Rüzgar doğudan 5 kt
Görüş mesafesi 10 km veya daha fazla
2000 ft yükseklikte parçalı bulutlu
Dönüşüyor
ayın 11'si saat 10 UTC'den ayın 11'si saat 12 UTC'ye kadar
Rüzgar doğu/güneydoğudan 10 kt

TAF: SBRF 110400Z 1106/1206 09005KT 9999 SCT020 TN26/1106Z TX30/1114Z BECMG 1110/1112 12010KT RMK PEH

4.000'den fazla havaalanı için hava durumu gözlemleri ve tahminleri (METAR ve TAF raporları).

Kullanılabilir istasyonlar harita üzerinde sarı ve kırmızı noktalarla gösterilir.

İstasyonun adını görmek için fareyi noktanın üzerinde gezdirin.

Sonrasında hava gözlem ve tahminlerini görmek için tıklayın.

Haritayı değiştirmek için: yaklaştırmak için siyah artı işaretli yeşil düğmeye ve uzaklaştırmak için de eksi işaretli düğmeye hızla tıklayın; bitişik haritalar için yeşil okları kullanın.


METAR-TAF: